createdAt,value
2023-03-05T00:02:10.989Z,96656.00
2023-03-05T00:04:37.474Z,96649.91
2023-03-05T00:07:03.924Z,96646.16
2023-03-05T00:09:30.363Z,96656.34
2023-03-05T00:11:56.807Z,96659.53
2023-03-05T00:14:23.257Z,96659.56
2023-03-05T00:16:49.716Z,96667.03
2023-03-05T00:19:16.181Z,96666.03
2023-03-05T00:21:42.663Z,96665.28
2023-03-05T00:24:09.140Z,96662.97
2023-03-05T00:26:35.613Z,96663.16
2023-03-05T00:29:02.056Z,96669.25
2023-03-05T00:31:28.568Z,96675.88
2023-03-05T00:33:55.076Z,96668.47
2023-03-05T00:36:21.565Z,96667.13
2023-03-05T00:38:48.035Z,96677.53
2023-03-05T00:41:14.530Z,96669.69
2023-03-05T00:43:40.979Z,96666.28
2023-03-05T00:46:07.455Z,96668.81
2023-03-05T00:48:33.926Z,96668.13
2023-03-05T00:51:00.631Z,96667.91
2023-03-05T00:53:28.055Z,96662.28
2023-03-05T00:55:54.508Z,96664.03
2023-03-05T00:58:20.987Z,96659.50
2023-03-05T01:00:47.422Z,96651.78
2023-03-05T05:06:05.425Z,96549.41
2023-03-05T05:08:31.872Z,96537.47
2023-03-05T05:10:58.334Z,96549.72
2023-03-05T05:13:24.815Z,96549.63
2023-03-05T05:15:51.325Z,96543.19
2023-03-05T05:18:17.794Z,96545.75
2023-03-05T05:20:44.256Z,96548.31
2023-03-05T05:23:10.720Z,96536.00
2023-03-05T05:25:37.170Z,96535.81
2023-03-05T05:28:03.623Z,96539.22
2023-03-05T05:30:30.083Z,96543.00
2023-03-05T05:32:56.537Z,96534.25
2023-03-05T05:35:23.049Z,96538.00
2023-03-05T05:37:49.546Z,96535.69
2023-03-05T05:40:16.009Z,96532.50
2023-03-05T05:42:42.488Z,96535.56
2023-03-05T05:45:08.975Z,96532.72
2023-03-05T05:47:35.466Z,96533.59
2023-03-05T05:50:01.914Z,96538.81
2023-03-05T05:52:28.423Z,96535.06
2023-03-05T05:54:54.902Z,96537.16
2023-03-05T05:57:21.348Z,96538.34
2023-03-05T05:59:47.810Z,96532.38
2023-03-05T06:02:14.335Z,96536.69
2023-03-05T06:04:40.863Z,96532.28
2023-03-05T06:07:07.332Z,96542.34
2023-03-05T06:09:33.771Z,96533.03
2023-03-05T06:12:00.240Z,96532.38
2023-03-05T06:14:26.706Z,96535.25
2023-03-05T06:16:53.217Z,96531.06
2023-03-05T06:19:19.717Z,96529.59
2023-03-05T06:21:46.177Z,96529.72
2023-03-05T06:24:12.625Z,96531.25
2023-03-05T06:26:39.083Z,96532.81
2023-03-05T06:29:05.524Z,96536.47
2023-03-05T06:31:31.986Z,96529.75
2023-03-05T06:33:58.458Z,96527.66
2023-03-05T06:36:24.903Z,96524.31
2023-03-05T06:38:53.237Z,96522.66
2023-03-05T06:41:19.905Z,96524.00
2023-03-05T06:43:46.347Z,96527.28
2023-03-05T06:46:12.914Z,96528.50
2023-03-05T06:48:39.396Z,96525.75
2023-03-05T06:51:05.832Z,96532.28
2023-03-05T06:53:32.346Z,96524.63
2023-03-05T06:55:58.839Z,96531.25
2023-03-05T06:58:25.305Z,96522.56
2023-03-05T07:00:51.793Z,96523.75
2023-03-05T07:03:18.263Z,96523.19
2023-03-05T07:05:44.729Z,96528.72
2023-03-05T07:08:11.204Z,96513.81
2023-03-05T07:10:37.684Z,96517.13
2023-03-05T07:13:04.153Z,96520.09
2023-03-05T07:15:30.642Z,96512.50
2023-03-05T07:17:57.142Z,96509.06
2023-03-05T07:20:23.587Z,96504.66
2023-03-05T07:22:50.078Z,96496.34
2023-03-05T07:25:16.552Z,96493.47
2023-03-05T07:27:43.017Z,96502.44
2023-03-05T07:30:09.454Z,96495.59
2023-03-05T07:32:35.977Z,96488.03
2023-03-05T07:35:02.462Z,96493.34
2023-03-05T07:37:28.920Z,96496.91
2023-03-05T07:39:55.380Z,96490.59
2023-03-05T07:42:21.892Z,96493.47
2023-03-05T07:44:48.402Z,96496.22
2023-03-05T07:47:14.843Z,96504.66
2023-03-05T07:49:41.293Z,96494.91
2023-03-05T07:52:07.747Z,96492.94
2023-03-05T07:54:34.198Z,96499.56
2023-03-05T07:57:00.633Z,96495.03
2023-03-05T07:59:27.080Z,96488.94
2023-03-05T08:01:53.548Z,96489.50
2023-03-05T08:04:20.032Z,96488.72
2023-03-05T08:06:46.487Z,96493.47
2023-03-05T08:09:12.950Z,96489.72
2023-03-05T08:11:39.405Z,96489.59
2023-03-05T08:14:05.921Z,96481.00
2023-03-05T08:16:32.387Z,96498.88
2023-03-05T08:18:58.833Z,96489.03
2023-03-05T08:21:25.278Z,96495.59
2023-03-05T08:23:51.736Z,96492.81
2023-03-05T08:26:18.188Z,96486.53
2023-03-05T08:28:44.632Z,96489.03
2023-03-05T08:31:11.150Z,96483.97
2023-03-05T08:33:37.722Z,96476.47
2023-03-05T08:36:04.193Z,96478.13
2023-03-05T08:38:30.638Z,96476.47
2023-03-05T08:40:57.090Z,96482.31
2023-03-05T08:43:23.553Z,96478.44
2023-03-05T08:45:50.002Z,96472.91
2023-03-05T08:48:16.442Z,96476.56
2023-03-05T08:50:42.898Z,96468.59
2023-03-05T08:53:09.358Z,96468.59
2023-03-05T08:55:35.822Z,96461.75
2023-03-05T08:58:02.295Z,96475.00
2023-03-05T09:00:28.740Z,96464.63
2023-03-05T09:02:55.246Z,96470.69
2023-03-05T09:05:21.749Z,96465.41
2023-03-05T09:07:48.217Z,96462.41
2023-03-05T09:10:14.663Z,96464.84
2023-03-05T09:12:41.115Z,96470.38
2023-03-05T09:15:07.581Z,96463.63
2023-03-05T09:17:34.066Z,96461.41
2023-03-05T09:20:00.547Z,96460.09
2023-03-05T09:22:26.991Z,96463.94
2023-03-05T09:24:53.450Z,96472.66
2023-03-05T09:27:19.910Z,96463.19
2023-03-05T09:29:46.344Z,96462.97
2023-03-05T09:32:12.906Z,96466.03
2023-03-05T09:34:39.371Z,96456.75
2023-03-05T09:37:05.812Z,96458.63
2023-03-05T09:39:32.278Z,96452.91
2023-03-05T09:41:58.714Z,96447.47
2023-03-05T09:44:25.158Z,96447.44
2023-03-05T09:46:51.602Z,96443.69
2023-03-05T09:49:18.057Z,96447.81
2023-03-05T09:51:44.618Z,96442.38
2023-03-05T09:54:11.110Z,96440.47
2023-03-05T09:56:37.573Z,96439.81
2023-03-05T09:59:04.038Z,96436.50
2023-03-05T10:01:30.491Z,96430.63
2023-03-05T10:03:57.064Z,96432.84
2023-03-05T10:06:23.531Z,96430.09
2023-03-05T10:08:49.997Z,96423.34
2023-03-05T10:11:16.439Z,96423.56
2023-03-05T10:13:42.875Z,96430.97
2023-03-05T10:16:09.370Z,96420.25
2023-03-05T10:18:35.816Z,96416.16
2023-03-05T10:21:02.284Z,96413.31
2023-03-05T10:23:28.762Z,96413.50
2023-03-05T10:25:55.201Z,96408.88
2023-03-05T10:28:21.652Z,96407.09
2023-03-05T10:30:48.133Z,96404.88
2023-03-05T10:33:14.640Z,96403.81
2023-03-05T10:35:41.163Z,96399.81
2023-03-05T10:38:07.686Z,96395.47
2023-03-05T10:40:34.154Z,96390.75
2023-03-05T10:43:00.623Z,96394.38
2023-03-05T10:45:27.078Z,96397.16
2023-03-05T10:47:53.554Z,96394.38
2023-03-05T10:50:20.013Z,96382.56
2023-03-05T10:52:46.482Z,96392.25
2023-03-05T10:55:12.960Z,96384.75
2023-03-05T10:57:39.431Z,96385.00
2023-03-05T11:00:05.878Z,96372.72
2023-03-05T11:02:32.398Z,96366.94
2023-03-05T11:04:58.854Z,96361.75
2023-03-05T11:07:25.305Z,96366.94
2023-03-05T11:09:51.751Z,96361.59
2023-03-05T11:12:18.251Z,96353.13
2023-03-05T11:14:44.761Z,96353.47
2023-03-05T11:17:11.240Z,96356.31
2023-03-05T11:19:37.714Z,96348.94
2023-03-05T11:22:04.157Z,96339.44
2023-03-05T11:24:30.632Z,96334.03
2023-03-05T11:26:57.081Z,96331.13
2023-03-05T11:29:23.563Z,96331.72
2023-03-05T11:31:50.032Z,96328.25
2023-03-05T11:34:16.510Z,96318.28
2023-03-05T11:36:42.974Z,96317.63
2023-03-05T11:39:09.452Z,96310.69
2023-03-05T11:41:35.940Z,96307.56
2023-03-05T11:44:02.400Z,96305.69
2023-03-05T11:46:28.937Z,96305.25
2023-03-05T11:48:55.448Z,96301.06
2023-03-05T11:51:21.913Z,96295.75
2023-03-05T11:53:48.372Z,96288.22
2023-03-05T11:56:15.487Z,96282.91
2023-03-05T11:58:42.632Z,96281.78
2023-03-05T12:01:09.123Z,96271.88
2023-03-05T12:03:35.635Z,96265.88
2023-03-05T12:06:02.123Z,96271.25
2023-03-05T12:08:28.562Z,96257.75
2023-03-05T12:10:55.023Z,96262.31
2023-03-05T12:13:21.463Z,96267.75
2023-03-05T12:15:48.022Z,96253.16
2023-03-05T12:18:14.509Z,96251.59
2023-03-05T12:20:41.006Z,96246.84
2023-03-05T12:23:07.541Z,96234.00
2023-03-05T12:25:34.014Z,96232.13
2023-03-05T12:28:00.497Z,96226.06
2023-03-05T12:30:26.980Z,96220.75
2023-03-05T12:32:53.449Z,96222.19
2023-03-05T12:35:19.966Z,96217.75
2023-03-05T12:37:46.451Z,96199.84
2023-03-05T12:40:12.924Z,96194.44
2023-03-05T12:42:39.399Z,96189.78
2023-03-05T12:45:05.886Z,96186.38
2023-03-05T12:47:32.366Z,96184.34
2023-03-05T12:49:58.835Z,96183.25
2023-03-05T12:52:25.297Z,96181.38
2023-03-05T12:54:51.748Z,96178.63
2023-03-05T12:57:18.203Z,96183.38
2023-03-05T12:59:44.649Z,96176.91
2023-03-05T13:02:11.134Z,96172.19
2023-03-05T13:04:37.592Z,96164.16
2023-03-05T13:07:04.072Z,96161.31
2023-03-05T13:09:30.550Z,96162.78
2023-03-05T13:11:57.122Z,96168.44
2023-03-05T13:14:23.688Z,96162.69
2023-03-05T13:16:50.138Z,96163.13
2023-03-05T13:19:16.624Z,96164.47
2023-03-05T13:21:43.107Z,96162.03
2023-03-05T13:24:09.578Z,96151.91
2023-03-05T13:26:36.051Z,96142.66
2023-03-05T13:29:02.518Z,96135.03
2023-03-05T13:31:29.012Z,96139.69
2023-03-05T13:33:55.581Z,96136.25
2023-03-05T13:36:22.053Z,96131.34
2023-03-05T13:38:48.531Z,96130.94
2023-03-05T13:41:15.008Z,96126.41
2023-03-05T13:43:41.474Z,96123.38
2023-03-05T13:46:08.073Z,96121.94
2023-03-05T13:48:34.589Z,96127.25
2023-03-05T13:51:01.061Z,96121.16
2023-03-05T13:53:27.538Z,96115.16
2023-03-05T13:55:54.015Z,96112.88
2023-03-05T13:58:20.490Z,96118.19
2023-03-05T14:00:46.990Z,96103.09
2023-03-05T14:03:13.500Z,96102.31
2023-03-05T14:05:39.956Z,96108.06
2023-03-05T14:08:06.404Z,96098.56
2023-03-05T14:10:32.916Z,96094.44
2023-03-05T14:12:59.414Z,96095.13
2023-03-05T14:15:25.878Z,96085.28
2023-03-05T14:17:52.360Z,96080.75
2023-03-05T14:20:19.155Z,96073.56
2023-03-05T14:22:45.634Z,96078.88
2023-03-05T14:25:12.144Z,96060.28
2023-03-05T14:27:38.599Z,96070.13
2023-03-05T14:30:05.053Z,96060.28
2023-03-05T14:32:31.688Z,96061.81
2023-03-05T14:34:58.178Z,96055.75
2023-03-05T14:37:24.648Z,96058.03
2023-03-05T14:39:51.134Z,96058.91
2023-03-05T14:42:17.584Z,96049.41
2023-03-05T14:44:44.036Z,96045.97
2023-03-05T14:47:10.499Z,96045.63
2023-03-05T14:49:36.956Z,96038.78
2023-03-05T14:52:03.437Z,96026.94
2023-03-05T14:54:29.896Z,96024.28
2023-03-05T14:56:56.361Z,96024.44
2023-03-05T14:59:22.829Z,96014.94
2023-03-05T15:01:49.364Z,96007.75
2023-03-05T15:04:15.917Z,96009.13
2023-03-05T15:06:42.437Z,95998.19
2023-03-05T15:09:08.930Z,96002.44
2023-03-05T15:11:35.424Z,95997.47
2023-03-05T15:14:01.921Z,95994.47
2023-03-05T15:16:28.367Z,95993.31
2023-03-05T15:18:54.843Z,95997.06
2023-03-05T15:21:21.298Z,95987.22
2023-03-05T15:23:47.775Z,95991.47
2023-03-05T15:26:14.309Z,95986.84
2023-03-05T15:28:40.769Z,95980.44
2023-03-05T15:31:07.304Z,95975.91
2023-03-05T15:33:33.787Z,95973.56
2023-03-05T15:36:00.236Z,95975.91
2023-03-05T15:38:26.720Z,95970.91
2023-03-05T15:40:53.180Z,95955.75
2023-03-05T15:43:19.649Z,95960.66
2023-03-05T15:45:46.109Z,95960.31
2023-03-05T15:48:12.555Z,95958.41
2023-03-05T15:50:39.829Z,95956.47
2023-03-05T15:53:07.342Z,95954.25
2023-03-05T15:55:33.807Z,95956.13
2023-03-05T15:58:00.270Z,95951.66
2023-03-05T16:00:26.725Z,95955.91
2023-03-05T16:02:53.237Z,95947.25
2023-03-05T16:05:19.744Z,95949.63
2023-03-05T16:07:46.210Z,95949.50
2023-03-05T16:10:12.661Z,95947.53
2023-03-05T16:12:39.105Z,95942.50
2023-03-05T16:15:05.574Z,95941.38
2023-03-05T16:17:32.038Z,95945.56
2023-03-05T16:19:58.485Z,95937.56
2023-03-05T16:22:24.922Z,95939.00
2023-03-05T16:24:51.400Z,95936.63
2023-03-05T16:27:17.868Z,95932.16
2023-03-05T16:29:44.370Z,95940.41
2023-03-05T16:32:10.851Z,95934.81
2023-03-05T16:34:37.327Z,95929.78
2023-03-05T16:37:03.822Z,95931.38
2023-03-05T16:39:30.275Z,95930.88
2023-03-05T16:41:56.765Z,95935.56
2023-03-05T16:44:23.206Z,95926.16
2023-03-05T16:46:49.713Z,95921.81
2023-03-05T16:49:16.184Z,95929.09
2023-03-05T16:51:42.631Z,95921.69
2023-03-05T16:54:10.145Z,95928.38
2023-03-05T16:56:36.723Z,95926.69
2023-03-05T16:59:03.185Z,95935.78
2023-03-05T17:01:29.638Z,95927.13
2023-03-05T17:03:56.133Z,95926.28
2023-03-05T17:06:22.618Z,95923.06
2023-03-05T17:08:49.071Z,95924.41
2023-03-05T17:11:15.540Z,95922.53
2023-03-05T17:13:42.008Z,95924.75
2023-03-05T17:16:08.507Z,95919.50
2023-03-05T17:18:34.974Z,95919.88
2023-03-05T17:21:01.445Z,95922.09
2023-03-05T17:23:27.912Z,95919.38
2023-03-05T17:25:54.378Z,95917.97
2023-03-05T17:28:20.825Z,95928.44
2023-03-05T17:30:47.276Z,95919.00
2023-03-05T17:33:13.785Z,95927.69
2023-03-05T17:35:40.326Z,95923.63
2023-03-05T17:38:06.790Z,95922.44
2023-03-05T17:40:33.253Z,95929.72
2023-03-05T17:42:59.735Z,95927.69
2023-03-05T17:45:26.291Z,95928.03
2023-03-05T17:47:52.761Z,95924.25
2023-03-05T17:50:19.242Z,95925.81
2023-03-05T17:52:45.703Z,95927.34
2023-03-05T17:55:12.170Z,95927.13
2023-03-05T17:57:38.645Z,95922.53
2023-03-05T18:00:05.151Z,95924.31
2023-03-05T18:02:31.618Z,95922.72
2023-03-05T18:04:58.059Z,95926.91
2023-03-05T18:07:24.534Z,95922.38
2023-03-05T18:09:50.978Z,95922.97
2023-03-05T18:12:17.503Z,95920.56
2023-03-05T18:14:43.939Z,95926.19
2023-03-05T18:17:10.439Z,95929.13
2023-03-05T18:19:36.901Z,95933.66
2023-03-05T18:22:03.357Z,95931.88
2023-03-05T18:24:29.824Z,95930.06
2023-03-05T18:26:56.289Z,95925.09
2023-03-05T18:29:22.749Z,95929.13
2023-03-05T18:31:49.197Z,95929.91
2023-03-05T18:34:15.643Z,95919.00
2023-03-05T18:36:42.106Z,95920.69
2023-03-05T18:39:08.634Z,95912.75
2023-03-05T18:41:35.114Z,95914.19
2023-03-05T18:44:01.593Z,95918.19
2023-03-05T18:46:28.117Z,95918.19
2023-03-05T18:48:54.596Z,95916.38
2023-03-05T18:51:21.063Z,95917.69
2023-03-05T18:53:47.539Z,95913.28
2023-03-05T18:56:13.982Z,95907.50
2023-03-05T18:58:40.450Z,95909.81
2023-03-05T19:01:06.973Z,95904.53
2023-03-05T19:03:33.437Z,95907.84
2023-03-05T19:05:59.893Z,95903.25
2023-03-05T19:08:26.362Z,95909.59
2023-03-05T19:10:52.826Z,95898.56
2023-03-05T19:13:19.291Z,95893.88
2023-03-05T19:15:45.768Z,95891.66
2023-03-05T19:18:12.252Z,95889.63
2023-03-05T19:20:38.745Z,95891.56
2023-03-05T19:23:05.219Z,95889.00
2023-03-05T19:25:31.666Z,95893.53
2023-03-05T19:27:58.115Z,95891.28
2023-03-05T19:30:24.613Z,95882.81
2023-03-05T19:32:51.081Z,95887.78
2023-03-05T19:35:17.577Z,95884.31
2023-03-05T19:37:44.298Z,95885.75
2023-03-05T19:40:10.762Z,95886.53
2023-03-05T19:42:37.213Z,95883.88
2023-03-05T19:45:03.662Z,95881.56
2023-03-05T19:47:30.115Z,95881.31
2023-03-05T19:49:56.552Z,95880.06
2023-03-05T19:52:22.992Z,95871.66
2023-03-05T19:54:49.459Z,95879.41
2023-03-05T19:57:15.916Z,95867.28
2023-03-05T19:59:42.418Z,95861.47
2023-03-05T20:02:08.906Z,95869.06
2023-03-05T20:04:35.374Z,95862.00
2023-03-05T20:07:01.949Z,95859.66
2023-03-05T20:09:28.425Z,95861.34
2023-03-05T20:11:54.878Z,95866.28
2023-03-05T20:14:21.335Z,95860.06
2023-03-05T20:16:47.795Z,95867.59
2023-03-05T20:19:14.276Z,95857.69
2023-03-05T20:21:40.744Z,95868.88
2023-03-05T20:24:09.593Z,95863.56
2023-03-05T20:26:36.286Z,95858.94
2023-03-05T20:29:02.736Z,95855.44
2023-03-05T20:31:29.248Z,95852.50
2023-03-05T20:33:55.748Z,95846.31
2023-03-05T20:36:22.224Z,95845.88
2023-03-05T20:38:48.690Z,95846.44
2023-03-05T20:41:15.177Z,95850.84
2023-03-05T20:43:41.647Z,95850.16
2023-03-05T20:46:08.101Z,95850.84
2023-03-05T20:48:34.601Z,95858.41
2023-03-05T20:51:01.069Z,95849.59
2023-03-05T20:53:27.538Z,95861.00
2023-03-05T20:55:54.005Z,95849.47
2023-03-05T20:58:20.490Z,95855.41
2023-03-05T21:00:46.984Z,95847.00
2023-03-05T21:03:13.485Z,95841.25
2023-03-05T21:05:39.931Z,95853.09
2023-03-05T21:08:06.369Z,95845.94
2023-03-05T21:10:32.822Z,95849.16
2023-03-05T21:13:00.903Z,95841.06
2023-03-05T21:15:27.516Z,95842.59
2023-03-05T21:17:53.959Z,95847.06
2023-03-05T21:20:20.437Z,95841.50
2023-03-05T21:22:46.886Z,95837.66
2023-03-05T21:25:13.333Z,95838.69
2023-03-05T21:27:39.789Z,95835.31
2023-03-05T21:30:06.433Z,95826.25
2023-03-05T21:32:32.988Z,95819.84
2023-03-05T21:35:00.458Z,95819.72
2023-03-05T21:37:27.036Z,95824.56
2023-03-05T21:39:53.499Z,95827.50
2023-03-05T21:42:19.950Z,95822.06
2023-03-05T21:44:46.402Z,95819.91
2023-03-05T21:47:12.851Z,95812.50
2023-03-05T21:49:39.321Z,95808.41
2023-03-05T21:52:05.817Z,95794.91
2023-03-05T21:54:32.274Z,95796.88
2023-03-05T21:56:58.721Z,95796.81
2023-03-05T21:59:25.176Z,95802.59
2023-03-05T22:01:52.627Z,95800.47
2023-03-05T22:04:19.148Z,95790.47
2023-03-05T22:06:45.591Z,95787.31
2023-03-05T22:09:12.027Z,95794.63
2023-03-05T22:11:38.471Z,95786.84
2023-03-05T22:14:04.911Z,95786.84
2023-03-05T22:16:31.398Z,95789.06
2023-03-05T22:18:57.892Z,95784.66
2023-03-05T22:21:24.342Z,95788.72
2023-03-05T22:23:50.809Z,95785.94
2023-03-05T22:26:17.289Z,95787.78
2023-03-05T22:28:43.788Z,95785.91
2023-03-05T22:31:10.309Z,95788.34
2023-03-05T22:33:36.860Z,95781.28
2023-03-05T22:36:03.318Z,95780.00
2023-03-05T22:38:29.767Z,95769.00
2023-03-05T22:40:56.213Z,95775.56
2023-03-05T22:43:22.707Z,95769.34
2023-03-05T22:45:49.221Z,95778.47
2023-03-05T22:48:15.683Z,95779.81
2023-03-05T22:50:42.132Z,95773.25
2023-03-05T22:53:08.605Z,95768.84
2023-03-05T22:55:35.047Z,95768.28
2023-03-05T22:58:01.514Z,95763.94
2023-03-05T23:00:27.974Z,95769.69
2023-03-05T23:02:54.560Z,95770.09
2023-03-05T23:05:21.170Z,95767.25
2023-03-05T23:07:47.648Z,95770.78
2023-03-05T23:10:14.119Z,95762.84
2023-03-05T23:12:40.567Z,95764.66
2023-03-05T23:15:07.000Z,95764.50
2023-03-05T23:17:33.465Z,95757.81
2023-03-05T23:19:59.907Z,95756.69
2023-03-05T23:22:26.379Z,95757.41
2023-03-05T23:24:52.879Z,95761.28
2023-03-05T23:27:19.376Z,95761.19
2023-03-05T23:29:45.843Z,95759.22
2023-03-05T23:32:12.329Z,95747.53
2023-03-05T23:34:38.849Z,95750.13
2023-03-05T23:37:05.294Z,95748.25
2023-03-05T23:39:31.760Z,95747.63
2023-03-05T23:41:58.229Z,95744.69
2023-03-05T23:44:24.671Z,95747.06
2023-03-05T23:46:51.115Z,95746.50
2023-03-05T23:49:17.560Z,95740.94
2023-03-05T23:51:44.005Z,95744.22
2023-03-05T23:54:10.442Z,95744.69
2023-03-05T23:56:36.914Z,95750.72
2023-03-05T23:59:03.366Z,95753.41
